Time;durP1;ratioP1;P1;durP2;ratioP2;P2;SDS_P1;SDS_P2;PMS_P1;PMS_P2;Temp;Humidity;BMP_temperature;BMP_pressure;BME280_temperature;BME280_humidity;BME280_pressure;Samples;Min_cycle;Max_cycle;Signal;HPM_P1;HPM_P2
2021/11/08 00:00:38;;;;;;;15.70;8.55;;;8.70;64.70;;;;;;5080958;28;20032;-45
2021/11/08 00:03:11;;;;;;;18.33;8.60;;;8.60;65.20;;;;;;5080978;28;20029;-45
2021/11/08 00:05:43;;;;;;;13.40;7.80;;;8.60;65.70;;;;;;5080985;28;20084;-45
2021/11/08 00:08:10;;;;;;;16.30;8.45;;;8.60;66.20;;;;;;5080628;28;20048;-46
2021/11/08 00:10:36;;;;;;;14.80;7.53;;;8.60;65.40;;;;;;5080819;28;20028;-45
2021/11/08 00:13:05;;;;;;;14.90;8.02;;;8.60;65.50;;;;;;5080821;28;20020;-45
2021/11/08 00:18:28;;;;;;;16.92;8.02;;;8.60;65.00;;;;;;5080926;28;20845;-45
2021/11/08 00:20:55;;;;;;;13.10;7.20;;;8.60;65.40;;;;;;5080551;28;20116;-45
2021/11/08 00:23:21;;;;;;;14.23;8.00;;;8.60;64.70;;;;;;5080603;28;20028;-45
2021/11/08 00:25:47;;;;;;;14.48;6.85;;;8.60;64.70;;;;;;5080070;28;20036;-45
2021/11/08 00:28:15;;;;;;;16.17;7.38;;;8.50;64.90;;;;;;5080441;28;20028;-45
2021/11/08 00:30:42;;;;;;;14.48;7.35;;;8.50;66.10;;;;;;5079315;28;20032;-45
2021/11/08 00:33:17;;;;;;;13.43;7.20;;;8.50;66.10;;;;;;5080291;28;20025;-45
2021/11/08 00:35:45;;;;;;;12.63;7.03;;;8.60;66.00;;;;;;5060595;28;20067;-45
2021/11/08 00:38:11;;;;;;;12.45;6.47;;;8.60;66.10;;;;;;5060437;28;20092;-45
2021/11/08 00:40:38;;;;;;;16.50;6.82;;;8.60;66.10;;;;;;5060249;28;20108;-45
2021/11/08 00:43:05;;;;;;;15.77;7.43;;;8.60;65.90;;;;;;5071723;28;20052;-46
2021/11/08 00:45:31;;;;;;;18.52;8.45;;;8.60;66.50;;;;;;5079255;28;20028;-45
2021/11/08 00:47:58;;;;;;;14.38;7.90;;;8.60;66.50;;;;;;5080348;28;20440;-45
2021/11/08 00:50:24;;;;;;;17.08;7.60;;;8.60;66.80;;;;;;5080238;28;20045;-45
2021/11/08 00:52:51;;;;;;;16.52;8.02;;;8.60;66.50;;;;;;5080088;28;20023;-45
2021/11/08 00:55:17;;;;;;;15.32;8.07;;;8.60;66.60;;;;;;5079995;28;20016;-46
2021/11/08 00:57:48;;;;;;;15.73;8.13;;;8.60;65.60;;;;;;5080278;28;20025;-45
2021/11/08 01:00:18;;;;;;;16.10;7.47;;;8.60;65.70;;;;;;5079092;28;20400;-45
2021/11/08 01:02:44;;;;;;;16.08;7.20;;;8.60;66.40;;;;;;5068422;28;20568;-45
2021/11/08 01:05:13;;;;;;;12.82;7.07;;;8.50;66.30;;;;;;5079614;28;20111;-45
2021/11/08 01:07:39;;;;;;;18.45;7.05;;;8.50;67.10;;;;;;5079358;28;20052;-45
2021/11/08 01:10:08;;;;;;;12.48;6.75;;;8.50;65.70;;;;;;5078884;28;20035;-45
2021/11/08 01:12:34;;;;;;;16.58;7.82;;;8.50;67.10;;;;;;5080036;28;20016;-45
2021/11/08 01:15:00;;;;;;;15.20;7.53;;;8.50;67.50;;;;;;5079645;28;20025;-45
2021/11/08 01:17:26;;;;;;;11.63;6.93;;;8.50;67.60;;;;;;5079800;28;20024;-46
2021/11/08 01:19:52;;;;;;;13.40;7.63;;;8.50;66.30;;;;;;5079606;28;20473;-46
2021/11/08 01:22:20;;;;;;;13.65;7.60;;;8.60;66.00;;;;;;5079706;28;20047;-45
2021/11/08 01:24:56;;;;;;;13.65;7.25;;;8.70;66.20;;;;;;5079700;28;20029;-45
2021/11/08 01:27:31;;;;;;;13.75;7.03;;;8.80;66.80;;;;;;5079476;28;20108;-45
2021/11/08 01:29:57;;;;;;;16.23;7.55;;;8.80;66.60;;;;;;5079066;28;20107;-46
2021/11/08 01:32:23;;;;;;;16.52;6.97;;;8.90;66.00;;;;;;5079299;28;20028;-45
2021/11/08 01:34:49;;;;;;;14.38;6.97;;;9.00;65.90;;;;;;5078765;28;20039;-45
2021/11/08 01:37:18;;;;;;;16.10;7.25;;;9.10;66.00;;;;;;5079574;28;20429;-45
2021/11/08 01:39:44;;;;;;;12.07;6.38;;;9.10;66.20;;;;;;5078737;28;20036;-46
2021/11/08 01:42:12;;;;;;;12.35;6.75;;;9.20;65.80;;;;;;5078387;28;20511;-45
2021/11/08 01:44:38;;;;;;;13.40;6.78;;;9.20;65.80;;;;;;5079176;28;20032;-46
2021/11/08 01:47:06;;;;;;;13.70;7.00;;;9.30;65.70;;;;;;5078931;28;20023;-45
2021/11/08 01:49:33;;;;;;;18.10;7.25;;;9.30;66.00;;;;;;5079231;28;20040;-45
2021/11/08 01:52:00;;;;;;;15.98;6.68;;;9.30;66.50;;;;;;5078908;28;20017;-45
2021/11/08 01:54:26;;;;;;;13.05;6.40;;;9.40;66.00;;;;;;5079173;28;20024;-45
2021/11/08 01:56:54;;;;;;;16.25;7.03;;;9.40;65.90;;;;;;5078730;28;20031;-45
2021/11/08 01:59:23;;;;;;;19.35;6.93;;;9.40;66.00;;;;;;5077071;28;20029;-45
2021/11/08 02:01:50;;;;;;;14.35;7.28;;;9.50;66.30;;;;;;5078748;28;20057;-46
2021/11/08 02:04:19;;;;;;;13.70;6.97;;;9.40;66.00;;;;;;5078712;28;20063;-45
2021/11/08 02:06:48;;;;;;;14.30;7.35;;;9.40;65.80;;;;;;5077815;28;20035;-45
2021/11/08 02:09:14;;;;;;;13.93;7.60;;;9.40;65.80;;;;;;5078044;28;20035;-45
2021/11/08 02:11:40;;;;;;;14.88;7.68;;;9.30;65.90;;;;;;5078410;28;20028;-45
2021/11/08 02:14:06;;;;;;;17.98;8.13;;;9.30;66.30;;;;;;5078576;28;20106;-45
2021/11/08 02:16:34;;;;;;;15.85;8.40;;;9.30;66.10;;;;;;5078439;28;20021;-45
2021/11/08 02:19:02;;;;;;;16.38;8.23;;;9.30;66.40;;;;;;5078369;28;20037;-45
2021/11/08 02:21:29;;;;;;;16.48;7.22;;;9.30;66.00;;;;;;5078177;28;20545;-45
2021/11/08 02:23:56;;;;;;;13.73;6.85;;;9.20;66.30;;;;;;5078426;28;20027;-45
2021/11/08 02:26:22;;;;;;;15.32;7.45;;;9.20;66.20;;;;;;5078158;28;20025;-46
2021/11/08 02:28:52;;;;;;;11.68;7.00;;;9.20;65.90;;;;;;5078253;28;20024;-45
2021/11/08 02:31:21;;;;;;;16.15;7.32;;;9.10;65.80;;;;;;5077872;28;20492;-45
2021/11/08 02:33:49;;;;;;;12.95;7.35;;;9.10;65.90;;;;;;5078125;28;20020;-45
2021/11/08 02:36:16;;;;;;;14.70;7.28;;;9.00;66.40;;;;;;5078024;28;20028;-45
2021/11/08 02:38:47;;;;;;;13.23;6.72;;;8.90;66.10;;;;;;5077955;28;20388;-45
2021/11/08 02:41:16;;;;;;;13.93;6.05;;;8.90;66.40;;;;;;5077666;28;20451;-45
2021/11/08 02:43:43;;;;;;;15.90;6.90;;;8.80;66.30;;;;;;5077301;28;20040;-45
2021/11/08 02:46:13;;;;;;;15.75;7.00;;;8.80;67.20;;;;;;5077869;28;20082;-46
2021/11/08 02:48:42;;;;;;;13.70;6.35;;;8.90;67.40;;;;;;5077604;28;20039;-45
2021/11/08 02:51:13;;;;;;;15.57;8.00;;;8.80;67.20;;;;;;5077613;28;20025;-45
2021/11/08 02:53:40;;;;;;;12.85;5.95;;;8.80;67.60;;;;;;5077995;28;20088;-47
2021/11/08 02:56:08;;;;;;;13.88;5.82;;;8.80;66.50;;;;;;5077701;28;20013;-45
2021/11/08 02:58:37;;;;;;;12.60;5.97;;;8.80;66.30;;;;;;5077868;28;20027;-46
2021/11/08 03:01:04;;;;;;;18.95;6.65;;;8.70;65.90;;;;;;5077733;28;20032;-45
2021/11/08 03:03:37;;;;;;;13.57;6.15;;;8.70;66.10;;;;;;5078059;28;20032;-45
2021/11/08 03:06:11;;;;;;;15.95;6.88;;;8.60;66.20;;;;;;5077619;28;20035;-45
2021/11/08 03:08:37;;;;;;;;;;;8.60;67.50;;;;;;5077823;28;20056;-45
2021/11/08 03:11:03;;;;;;;11.95;6.10;;;8.60;65.90;;;;;;5077948;28;19909;-45
2021/11/08 03:13:33;;;;;;;14.85;6.20;;;8.60;66.40;;;;;;5070215;28;20127;-45
2021/11/08 03:16:09;;;;;;;12.82;5.18;;;8.60;67.30;;;;;;5072367;28;20037;-45
2021/11/08 03:18:41;;;;;;;20.17;6.55;;;8.60;66.50;;;;;;5067148;28;20016;-45
2021/11/08 03:21:27;;;;;;;12.50;6.03;;;8.60;66.40;;;;;;5066991;28;20033;-45
2021/11/08 03:23:57;;;;;;;14.57;6.07;;;8.50;67.90;;;;;;5068766;28;20025;-45
2021/11/08 03:26:39;;;;;;;11.43;5.72;;;8.50;67.10;;;;;;5073510;28;20028;-45
2021/11/08 03:29:05;;;;;;;15.27;6.25;;;8.50;66.50;;;;;;5062673;28;20028;-44
2021/11/08 03:31:33;;;;;;;14.50;5.97;;;8.50;66.50;;;;;;5057281;28;20512;-45
2021/11/08 03:33:59;;;;;;;15.20;6.28;;;8.50;66.60;;;;;;5056877;28;20022;-45
2021/11/08 03:36:26;;;;;;;10.77;5.97;;;8.50;66.60;;;;;;5057273;28;20025;-45
2021/11/08 03:38:52;;;;;;;12.48;6.22;;;8.50;66.80;;;;;;5057425;28;20075;-45
2021/11/08 03:41:18;;;;;;;13.18;6.78;;;8.60;67.10;;;;;;5057251;28;20464;-45
2021/11/08 03:43:44;;;;;;;14.75;6.40;;;8.60;67.70;;;;;;5057359;28;20021;-45
2021/11/08 03:46:09;;;;;;;13.60;6.75;;;8.70;68.00;;;;;;5057474;28;20480;-44
2021/11/08 03:48:36;;;;;;;14.80;6.53;;;8.70;67.90;;;;;;5057371;28;20384;-45
2021/11/08 03:51:02;;;;;;;13.15;6.28;;;8.80;67.20;;;;;;5057143;28;20037;-44
2021/11/08 03:53:28;;;;;;;12.57;6.30;;;8.70;66.60;;;;;;5057359;28;20763;-44
2021/11/08 03:55:54;;;;;;;14.23;6.45;;;8.70;66.90;;;;;;5057060;28;20052;-45
2021/11/08 03:58:21;;;;;;;13.45;5.97;;;8.70;67.40;;;;;;5057264;28;20556;-46
2021/11/08 04:00:49;;;;;;;11.52;5.43;;;8.70;67.30;;;;;;5057118;28;20059;-45
2021/11/08 04:03:15;;;;;;;9.38;5.32;;;8.60;66.90;;;;;;5056960;28;20025;-44
2021/11/08 04:05:42;;;;;;;14.13;5.60;;;8.60;67.40;;;;;;5057053;28;20029;-45
2021/11/08 04:08:12;;;;;;;11.85;5.40;;;8.60;67.10;;;;;;5056749;28;20045;-44
2021/11/08 04:10:41;;;;;;;14.40;5.72;;;8.50;66.80;;;;;;5061866;28;20115;-44
2021/11/08 04:13:07;;;;;;;11.68;5.70;;;8.50;67.50;;;;;;5075901;28;20024;-45
2021/11/08 04:15:40;;;;;;;13.05;5.90;;;8.50;67.10;;;;;;5076472;28;20075;-45
2021/11/08 04:18:11;;;;;;;14.07;5.80;;;8.50;66.80;;;;;;5075942;28;20502;-44
2021/11/08 04:20:41;;;;;;;13.55;6.07;;;8.50;66.90;;;;;;5076129;28;20450;-45
2021/11/08 04:23:07;;;;;;;15.18;5.43;;;8.40;67.30;;;;;;5076639;28;20104;-45
2021/11/08 04:25:32;;;;;;;14.00;5.95;;;8.50;67.50;;;;;;5077073;28;20056;-45
2021/11/08 04:27:58;;;;;;;14.35;6.03;;;8.50;67.60;;;;;;5077030;28;20059;-45
2021/11/08 04:30:26;;;;;;;12.82;5.90;;;8.50;67.10;;;;;;5076700;28;20059;-45
2021/11/08 04:35:42;;;;;;;11.57;5.65;;;8.50;67.70;;;;;;5077268;28;20055;-46
2021/11/08 04:38:18;;;;;;;11.57;5.40;;;8.50;67.40;;;;;;5076980;28;20467;-44
2021/11/08 04:46:33;;;;;;;14.02;5.85;;;8.60;67.10;;;;;;5078830;28;20030;-45
2021/11/08 04:57:03;;;;;;;12.63;6.32;;;8.80;66.90;;;;;;5080485;28;20020;-46
2021/11/08 05:31:44;;;;;;;11.68;5.47;;;9.10;67.70;;;;;;5079203;28;20024;-45
2021/11/08 05:34:11;;;;;;;11.27;5.43;;;9.10;67.40;;;;;;5079153;28;20480;-45
2021/11/08 05:36:37;;;;;;;11.65;5.25;;;9.20;67.30;;;;;;5079475;28;20028;-45
2021/11/08 05:39:05;;;;;;;10.93;5.40;;;9.20;67.80;;;;;;5079256;28;20043;-45
2021/11/08 05:41:32;;;;;;;9.85;5.53;;;9.20;67.50;;;;;;5079153;28;20369;-45
2021/11/08 05:43:58;;;;;;;15.05;6.15;;;9.30;67.40;;;;;;5078951;28;20032;-45
2021/11/08 05:46:24;;;;;;;11.98;5.90;;;9.30;67.40;;;;;;5079322;28;20031;-45
2021/11/08 05:48:51;;;;;;;18.88;6.60;;;9.30;67.40;;;;;;5073112;28;20119;-45
2021/11/08 05:51:17;;;;;;;17.02;5.68;;;9.40;67.80;;;;;;5058329;28;20541;-44
2021/11/08 05:53:44;;;;;;;12.25;5.85;;;9.40;67.40;;;;;;5057535;28;20052;-46
2021/11/08 05:59:01;;;;;;;14.40;5.97;;;9.40;67.40;;;;;;5060700;28;20021;-45
2021/11/08 06:50:45;;;;;;;12.57;5.97;;;8.90;68.80;;;;;;5076116;28;20032;-44
2021/11/08 06:53:18;;;;;;;15.45;7.07;;;8.90;67.90;;;;;;5076283;28;20502;-45
2021/11/08 06:55:47;;;;;;;10.95;6.07;;;8.90;68.30;;;;;;5076782;28;20025;-44
2021/11/08 06:58:17;;;;;;;16.13;7.03;;;8.90;68.10;;;;;;5077083;28;20103;-44
2021/11/08 07:00:45;;;;;;;12.57;5.90;;;9.00;68.10;;;;;;5076654;28;20025;-45
2021/11/08 07:03:11;;;;;;;18.75;6.68;;;9.00;68.20;;;;;;5077611;28;20037;-45
2021/11/08 07:05:37;;;;;;;16.00;6.10;;;9.00;68.40;;;;;;5077578;28;20468;-45
2021/11/08 07:08:03;;;;;;;13.55;5.97;;;9.00;68.70;;;;;;5076515;28;20052;-45
2021/11/08 07:10:29;;;;;;;14.68;5.38;;;9.10;68.50;;;;;;5077827;28;20024;-46
2021/11/08 07:12:55;;;;;;;12.68;4.95;;;9.10;68.20;;;;;;5077678;28;20036;-45
2021/11/08 07:15:23;;;;;;;13.32;5.20;;;9.00;68.50;;;;;;5077309;28;20039;-45
2021/11/08 07:17:50;;;;;;;10.70;4.68;;;9.10;68.90;;;;;;5077471;28;20029;-44
2021/11/08 07:20:17;;;;;;;14.20;5.35;;;9.00;68.50;;;;;;5077530;28;20028;-45
2021/11/08 07:22:44;;;;;;;10.82;4.90;;;9.00;68.20;;;;;;5077103;28;20449;-46
2021/11/08 07:25:10;;;;;;;14.38;5.20;;;9.00;68.00;;;;;;5058968;28;20037;-45
2021/11/08 07:27:36;;;;;;;13.68;5.55;;;9.00;68.40;;;;;;5055786;28;20504;-45
2021/11/08 07:30:04;;;;;;;12.48;5.40;;;9.00;68.70;;;;;;5055589;28;20036;-45
2021/11/08 07:32:30;;;;;;;19.42;5.05;;;9.10;68.50;;;;;;5057635;28;20091;-45
2021/11/08 07:34:56;;;;;;;16.63;5.78;;;9.10;69.00;;;;;;5057190;28;20021;-45
2021/11/08 07:37:22;;;;;;;12.27;5.60;;;9.10;68.20;;;;;;5056849;28;20408;-45
2021/11/08 07:39:49;;;;;;;13.23;5.97;;;9.20;68.30;;;;;;5057169;28;20025;-45
2021/11/08 07:42:16;;;;;;;11.00;4.80;;;9.20;68.60;;;;;;5057188;28;20039;-45
2021/11/08 07:44:43;;;;;;;10.70;4.50;;;9.20;69.10;;;;;;5057164;28;20030;-45
2021/11/08 07:47:09;;;;;;;11.38;4.35;;;9.30;68.50;;;;;;5057096;28;20088;-45
2021/11/08 07:49:35;;;;;;;9.45;4.03;;;9.40;68.50;;;;;;5057017;28;20025;-45
2021/11/08 07:52:03;;;;;;;9.90;4.13;;;9.50;68.60;;;;;;5057133;28;20529;-45
2021/11/08 07:54:31;;;;;;;13.05;4.22;;;9.60;68.70;;;;;;5057194;28;20031;-44
2021/11/08 07:56:57;;;;;;;17.88;4.55;;;9.70;69.20;;;;;;5057343;28;20085;-45
2021/11/08 07:59:23;;;;;;;12.10;4.40;;;9.80;68.70;;;;;;5060380;28;20021;-45
2021/11/08 08:01:49;;;;;;;10.10;4.53;;;9.90;68.80;;;;;;5063494;28;20022;-45
2021/11/08 08:04:16;;;;;;;13.07;5.28;;;10.10;68.80;;;;;;5064312;28;20465;-44
2021/11/08 08:06:43;;;;;;;12.20;4.10;;;10.30;68.60;;;;;;5065157;28;20451;-45
2021/11/08 08:09:09;;;;;;;11.82;4.50;;;10.40;68.90;;;;;;5066578;28;20064;-44
2021/11/08 08:11:35;;;;;;;11.00;4.80;;;10.60;69.00;;;;;;5066835;28;20067;-45
2021/11/08 08:14:00;;;;;;;12.25;4.68;;;10.70;68.80;;;;;;5064802;28;20036;-44
2021/11/08 08:16:27;;;;;;;10.05;4.57;;;10.80;69.10;;;;;;5066985;28;20021;-45
2021/11/08 08:18:54;;;;;;;12.23;4.18;;;10.80;69.00;;;;;;5065618;28;20036;-46
2021/11/08 08:21:21;;;;;;;13.43;4.63;;;10.90;68.80;;;;;;5069517;28;20025;-45
2021/11/08 08:23:53;;;;;;;11.80;4.40;;;11.00;68.80;;;;;;5069498;28;20077;-45
2021/11/08 08:26:25;;;;;;;10.68;4.30;;;11.10;69.10;;;;;;5068545;28;20021;-46
2021/11/08 08:28:51;;;;;;;12.07;4.55;;;11.10;68.80;;;;;;5067677;28;20031;-44
2021/11/08 08:31:17;;;;;;;8.95;3.78;;;11.20;69.20;;;;;;5069824;28;20070;-46
2021/11/08 08:33:43;;;;;;;9.93;3.60;;;11.30;69.00;;;;;;5068851;28;20024;-45
2021/11/08 08:36:09;;;;;;;12.93;3.47;;;11.40;68.90;;;;;;5067903;28;20071;-45
2021/11/08 08:38:35;;;;;;;11.02;3.80;;;11.40;68.90;;;;;;5070072;28;20476;-46
2021/11/08 08:41:02;;;;;;;10.45;3.63;;;11.50;68.60;;;;;;5075040;28;20025;-46
2021/11/08 08:43:29;;;;;;;9.95;3.92;;;11.60;68.70;;;;;;5074021;28;20546;-42
2021/11/08 08:45:57;;;;;;;11.30;3.88;;;11.60;68.60;;;;;;5073687;28;20089;-43
2021/11/08 08:48:30;;;;;;;12.85;4.20;;;11.70;68.90;;;;;;5068677;28;20025;-45
2021/11/08 08:50:57;;;;;;;11.77;3.92;;;11.80;68.80;;;;;;5068842;28;20032;-43
2021/11/08 08:53:23;;;;;;;12.77;3.97;;;11.90;69.10;;;;;;5070249;28;20017;-43
2021/11/08 08:55:49;;;;;;;11.32;4.28;;;12.00;68.90;;;;;;5067429;28;20548;-43
2021/11/08 08:58:16;;;;;;;9.18;3.50;;;12.00;68.90;;;;;;5062929;28;20047;-43
2021/11/08 09:00:47;;;;;;;12.02;3.72;;;12.00;68.80;;;;;;5078924;28;20029;-43
2021/11/08 09:03:14;;;;;;;10.88;4.13;;;12.00;68.80;;;;;;5078464;28;20032;-43
2021/11/08 09:05:40;;;;;;;21.60;12.18;;;12.10;68.50;;;;;;5077727;28;20033;-43
2021/11/08 09:08:06;;;;;;;20.17;10.27;;;12.20;68.60;;;;;;5077076;28;20073;-43
2021/11/08 09:10:34;;;;;;;12.20;6.85;;;12.20;68.90;;;;;;5072489;28;20032;-43
2021/11/08 09:13:01;;;;;;;11.52;6.10;;;12.30;69.20;;;;;;5079375;28;20407;-44
2021/11/08 09:15:28;;;;;;;16.92;4.72;;;12.40;69.20;;;;;;5073594;28;20560;-43
2021/11/08 09:17:55;;;;;;;13.98;4.05;;;12.50;68.70;;;;;;5065425;28;20029;-43
2021/11/08 09:20:21;;;;;;;10.65;3.45;;;12.70;68.90;;;;;;5062043;28;20029;-39
2021/11/08 09:22:50;;;;;;;12.02;4.60;;;12.80;68.80;;;;;;5061530;28;20025;-39
2021/11/08 09:25:20;;;;;;;15.07;4.38;;;12.90;68.80;;;;;;5072882;28;20472;-39
2021/11/08 09:27:48;;;;;;;17.42;5.75;;;13.10;68.60;;;;;;5079744;28;20067;-39
2021/11/08 09:30:17;;;;;;;12.80;4.45;;;13.00;68.50;;;;;;5078476;28;20071;-39
2021/11/08 09:32:45;;;;;;;10.35;3.80;;;13.00;68.30;;;;;;5078866;28;20029;-39
2021/11/08 09:35:11;;;;;;;7.55;3.10;;;13.00;68.20;;;;;;5077690;28;20055;-39
2021/11/08 09:37:43;;;;;;;13.48;4.70;;;13.00;68.00;;;;;;5077655;28;20582;-39
2021/11/08 09:40:15;;;;;;;11.18;3.72;;;13.10;68.00;;;;;;5076453;28;20400;-39
2021/11/08 09:42:42;;;;;;;12.25;3.60;;;13.00;68.00;;;;;;5078545;28;20039;-39
2021/11/08 09:45:10;;;;;;;15.15;4.20;;;13.10;68.00;;;;;;5078993;28;20561;-39
2021/11/08 09:47:38;;;;;;;14.77;5.72;;;13.10;68.20;;;;;;5078845;28;20024;-39
2021/11/08 09:50:09;;;;;;;12.27;5.07;;;13.10;68.30;;;;;;5079001;28;20032;-39
2021/11/08 09:52:41;;;;;;;15.15;7.10;;;13.20;68.30;;;;;;5077971;28;20024;-39
2021/11/08 09:55:10;;;;;;;16.08;4.55;;;13.30;68.50;;;;;;5079004;28;20025;-40
2021/11/08 09:57:36;;;;;;;11.43;3.45;;;13.50;68.70;;;;;;5079460;28;20484;-39
2021/11/08 10:00:43;;;;;;;16.85;7.75;;;13.60;68.40;;;;;;5079601;28;20026;-39
2021/11/08 10:03:13;;;;;;;13.50;5.22;;;13.90;68.50;;;;;;5079087;28;20047;-39
2021/11/08 10:05:43;;;;;;;14.10;3.60;;;14.10;68.20;;;;;;5078944;28;20103;-39
2021/11/08 10:08:13;;;;;;;11.27;3.90;;;14.20;67.70;;;;;;5078302;28;20411;-39
2021/11/08 10:10:39;;;;;;;12.38;3.90;;;14.30;67.40;;;;;;5072397;28;20476;-40
2021/11/08 10:13:10;;;;;;;15.98;4.47;;;14.40;67.50;;;;;;5078891;28;20025;-39
2021/11/08 10:15:43;;;;;;;12.73;4.68;;;14.30;67.10;;;;;;5078431;28;20027;-39
2021/11/08 10:18:10;;;;;;;13.37;4.53;;;14.40;67.00;;;;;;5074875;28;20079;-39
2021/11/08 10:20:43;;;;;;;14.35;4.20;;;14.20;66.70;;;;;;5078062;28;20419;-39
2021/11/08 10:23:11;;;;;;;15.50;4.22;;;14.30;67.30;;;;;;5078476;28;20039;-39
2021/11/08 10:25:39;;;;;;;14.43;3.90;;;14.20;67.20;;;;;;5078163;28;20042;-39
2021/11/08 10:28:10;;;;;;;14.15;3.88;;;14.20;67.00;;;;;;5078297;28;20033;-39
2021/11/08 10:30:37;;;;;;;11.23;3.50;;;14.40;67.40;;;;;;5075143;28;20025;-40
2021/11/08 10:33:08;;;;;;;12.05;3.75;;;14.50;67.20;;;;;;5062381;28;20017;-39
2021/11/08 10:35:36;;;;;;;13.25;3.58;;;14.70;67.30;;;;;;5063604;28;20098;-39
2021/11/08 10:38:07;;;;;;;13.25;3.15;;;14.90;67.30;;;;;;5058758;28;20377;-39
2021/11/08 10:41:19;;;;;;;15.15;4.82;;;15.10;67.00;;;;;;5058538;28;20029;-39
2021/11/08 10:43:48;;;;;;;11.95;4.07;;;15.30;67.40;;;;;;5064005;28;20042;-39
2021/11/08 10:46:29;;;;;;;14.13;3.88;;;15.50;66.60;;;;;;5069318;28;20078;-39
2021/11/08 10:48:59;;;;;;;13.52;3.40;;;15.70;66.50;;;;;;5067357;28;20429;-39
2021/11/08 10:51:27;;;;;;;14.63;3.17;;;15.90;66.20;;;;;;5067885;28;20021;-39
2021/11/08 10:53:56;;;;;;;13.07;4.10;;;15.90;65.60;;;;;;5074066;28;20017;-39
2021/11/08 10:56:31;;;;;;;14.80;3.50;;;15.90;65.50;;;;;;5076704;28;20498;-39
2021/11/08 10:59:01;;;;;;;11.98;3.45;;;15.90;65.70;;;;;;5073859;28;20063;-39
2021/11/08 11:01:35;;;;;;;11.50;3.45;;;16.00;65.10;;;;;;5075368;28;20035;-39
2021/11/08 11:04:04;;;;;;;14.05;3.58;;;15.90;65.20;;;;;;5073207;28;20507;-39
2021/11/08 11:06:46;;;;;;;14.85;4.38;;;15.80;65.20;;;;;;5069398;28;20511;-39
2021/11/08 11:09:15;;;;;;;18.63;4.68;;;15.90;65.70;;;;;;5068090;28;20083;-39
2021/11/08 11:11:43;;;;;;;20.15;6.53;;;15.90;65.30;;;;;;5066897;28;20024;-39
2021/11/08 11:14:11;;;;;;;19.92;6.30;;;15.80;65.10;;;;;;5060348;28;20052;-39
2021/11/08 11:16:49;;;;;;;14.57;6.18;;;15.70;65.50;;;;;;5056529;28;20017;-39
2021/11/08 11:19:18;;;;;;;18.52;6.65;;;15.60;65.30;;;;;;5057484;28;20100;-40
2021/11/08 11:22:02;;;;;;;13.77;5.10;;;15.50;65.40;;;;;;5057707;28;20029;-39
2021/11/08 11:24:46;;;;;;;16.58;5.22;;;15.40;65.40;;;;;;5057437;28;20033;-39
2021/11/08 11:27:29;;;;;;;17.77;6.45;;;15.40;65.60;;;;;;5057095;28;20044;-39
2021/11/08 11:30:19;;;;;;;19.52;5.72;;;15.20;65.60;;;;;;5055814;28;20500;-39
2021/11/08 11:32:55;;;;;;;14.10;4.10;;;15.20;66.10;;;;;;5056286;28;20032;-40
2021/11/08 11:35:20;;;;;;;16.35;3.30;;;15.20;66.20;;;;;;5056669;28;20435;-39
2021/11/08 11:37:56;;;;;;;17.27;3.83;;;15.30;66.00;;;;;;5056841;28;20017;-39
2021/11/08 11:40:23;;;;;;;14.70;3.10;;;15.20;65.70;;;;;;5056723;28;20507;-39
2021/11/08 11:43:12;;;;;;;13.38;3.00;;;15.20;66.10;;;;;;5057505;28;20029;-39
2021/11/08 11:45:53;;;;;;;12.68;3.03;;;15.10;66.10;;;;;;5057654;28;20033;-39
2021/11/08 11:48:23;;;;;;;12.20;3.47;;;15.20;66.30;;;;;;5057472;28;20049;-39
2021/11/08 11:50:49;;;;;;;17.85;3.95;;;15.30;66.60;;;;;;5058188;28;20040;-40
2021/11/08 11:53:15;;;;;;;15.38;3.25;;;15.50;66.10;;;;;;5057478;28;20070;-39
2021/11/08 11:55:42;;;;;;;12.88;4.68;;;15.60;65.80;;;;;;5061185;28;20103;-39
2021/11/08 11:58:07;;;;;;;12.95;3.03;;;15.90;66.60;;;;;;5061241;28;20021;-39
2021/11/08 12:00:43;;;;;;;17.58;3.28;;;16.10;66.10;;;;;;5061440;28;20513;-39
2021/11/08 12:03:09;;;;;;;15.70;3.38;;;16.10;64.90;;;;;;5061489;28;20064;-40
2021/11/08 12:05:36;;;;;;;10.85;3.08;;;16.20;65.00;;;;;;5061350;28;20446;-40
2021/11/08 12:08:07;;;;;;;11.20;2.78;;;16.10;64.50;;;;;;5061044;28;20573;-39
2021/11/08 12:10:41;;;;;;;15.23;3.08;;;16.10;65.20;;;;;;5061330;28;20036;-39
2021/11/08 12:13:16;;;;;;;10.80;2.85;;;16.10;64.60;;;;;;5061163;28;20021;-39
2021/11/08 12:15:42;;;;;;;;;;;16.00;64.70;;;;;;5061747;28;20108;-39
2021/11/08 12:18:11;;;;;;;15.63;2.85;;;16.00;65.10;;;;;;5061408;28;19948;-39
2021/11/08 12:20:51;;;;;;;10.02;3.30;;;16.00;64.70;;;;;;5061323;28;20056;-39
2021/11/08 12:23:28;;;;;;;11.40;2.53;;;15.90;65.20;;;;;;5060959;28;20357;-39
2021/11/08 12:25:54;;;;;;;14.18;6.97;;;16.00;65.30;;;;;;5061408;28;20033;-39
2021/11/08 12:28:23;;;;;;;10.02;3.45;;;16.10;65.40;;;;;;5060998;28;20112;-39
2021/11/08 12:30:55;;;;;;;10.73;2.78;;;16.20;65.30;;;;;;5060958;28;20055;-39
2021/11/08 12:33:27;;;;;;;10.77;2.70;;;16.20;64.60;;;;;;5061037;28;20029;-39
2021/11/08 12:35:56;;;;;;;13.80;3.13;;;15.70;64.20;;;;;;5060783;28;20083;-39
2021/11/08 12:38:21;;;;;;;13.15;2.53;;;15.50;65.00;;;;;;5060879;28;20025;-40
2021/11/08 12:40:49;;;;;;;11.05;3.00;;;15.30;65.10;;;;;;5060482;28;20036;-39
2021/11/08 12:43:28;;;;;;;11.43;2.67;;;15.10;65.30;;;;;;5060629;28;20029;-39
2021/11/08 12:45:54;;;;;;;9.43;2.10;;;14.90;65.80;;;;;;5060999;28;20025;-39
2021/11/08 12:48:20;;;;;;;11.93;2.88;;;14.80;66.00;;;;;;5059339;28;20037;-39
2021/11/08 12:51:00;;;;;;;9.02;2.40;;;14.70;66.10;;;;;;5060426;28;20035;-39
2021/11/08 12:53:28;;;;;;;9.48;2.22;;;14.80;66.30;;;;;;5060626;28;20025;-39
2021/11/08 12:55:55;;;;;;;11.50;2.30;;;14.70;66.10;;;;;;5060386;28;20041;-39
2021/11/08 12:58:36;;;;;;;12.93;3.03;;;14.60;66.30;;;;;;5060355;28;20044;-39
2021/11/08 13:01:04;;;;;;;10.25;2.50;;;14.60;66.20;;;;;;5060458;28;20477;-39
2021/11/08 13:03:40;;;;;;;9.27;2.22;;;14.50;66.30;;;;;;5060424;28;20028;-39
2021/11/08 13:06:09;;;;;;;15.48;3.03;;;14.60;66.40;;;;;;5059080;28;20060;-39
2021/11/08 13:08:35;;;;;;;11.65;2.53;;;14.60;66.60;;;;;;5060559;28;20182;-39
2021/11/08 13:11:15;;;;;;;11.45;2.95;;;14.60;66.70;;;;;;5059994;28;20033;-40
2021/11/08 13:14:00;;;;;;;13.05;2.88;;;14.40;66.50;;;;;;5059969;28;20106;-40
2021/11/08 13:16:41;;;;;;;15.25;2.92;;;14.50;66.40;;;;;;5060180;28;20022;-39
2021/11/08 13:19:14;;;;;;;10.70;2.63;;;14.50;66.40;;;;;;5059961;28;20044;-40
2021/11/08 13:21:41;;;;;;;12.95;2.83;;;14.40;66.50;;;;;;5060166;28;20062;-40
2021/11/08 13:24:10;;;;;;;11.82;2.97;;;14.30;66.50;;;;;;5059829;28;20025;-39
2021/11/08 13:26:47;;;;;;;10.93;2.40;;;14.30;66.60;;;;;;5059879;28;20039;-39
2021/11/08 13:29:18;;;;;;;12.05;2.55;;;14.20;66.80;;;;;;5059789;28;20048;-39
2021/11/08 13:31:44;;;;;;;14.00;3.05;;;14.20;67.00;;;;;;5059847;28;20033;-39
2021/11/08 13:34:13;;;;;;;12.70;2.35;;;14.10;67.30;;;;;;5059673;28;20033;-39
2021/11/08 13:36:43;;;;;;;14.18;3.30;;;14.10;67.30;;;;;;5059662;28;20021;-39
2021/11/08 13:39:09;;;;;;;19.35;3.08;;;14.10;67.30;;;;;;5059590;28;20025;-39
2021/11/08 13:41:35;;;;;;;11.52;2.60;;;14.00;67.90;;;;;;5059926;28;20086;-39
2021/11/08 13:44:10;;;;;;;20.08;3.15;;;13.90;68.10;;;;;;5059652;28;20021;-39
2021/11/08 13:46:46;;;;;;;12.60;2.80;;;13.90;67.60;;;;;;5059656;28;20029;-39
2021/11/08 13:49:15;;;;;;;12.52;2.95;;;13.90;68.00;;;;;;5059820;28;20029;-39
2021/11/08 13:51:49;;;;;;;16.98;2.95;;;13.90;68.00;;;;;;5059253;28;20029;-39
2021/11/08 13:54:22;;;;;;;16.50;3.50;;;13.80;68.60;;;;;;5059471;28;20017;-39
2021/11/08 13:56:52;;;;;;;13.07;3.28;;;13.70;69.10;;;;;;5059412;28;20056;-39
2021/11/08 13:59:31;;;;;;;13.70;2.85;;;13.80;68.90;;;;;;5059155;28;20020;-39
2021/11/08 14:02:05;;;;;;;11.95;3.13;;;13.90;68.50;;;;;;5059354;28;20476;-39
2021/11/08 14:04:45;;;;;;;15.07;3.33;;;14.00;68.80;;;;;;5059280;28;20029;-39
2021/11/08 14:07:13;;;;;;;9.07;2.22;;;14.00;68.60;;;;;;5059107;28;20052;-39
2021/11/08 14:09:42;;;;;;;16.25;2.83;;;14.00;68.60;;;;;;5059117;28;20035;-39
2021/11/08 14:12:11;;;;;;;11.98;2.85;;;14.00;69.10;;;;;;5058743;28;20104;-39
2021/11/08 14:14:38;;;;;;;14.52;2.60;;;14.10;68.60;;;;;;5058907;28;20024;-39
2021/11/08 14:17:28;;;;;;;12.45;3.40;;;14.10;69.00;;;;;;5058766;28;20035;-39
2021/11/08 14:19:58;;;;;;;14.05;3.00;;;13.90;69.50;;;;;;5056529;28;20036;-40
2021/11/08 14:22:26;;;;;;;10.52;2.50;;;13.90;69.40;;;;;;5058966;28;20064;-39
2021/11/08 14:24:56;;;;;;;12.80;2.53;;;13.80;69.40;;;;;;5058937;28;20029;-39
2021/11/08 14:27:26;;;;;;;22.77;9.23;;;13.80;69.00;;;;;;5058776;28;20423;-40
2021/11/08 14:29:52;;;;;;;17.55;3.88;;;13.80;69.30;;;;;;5058444;28;20436;-39
2021/11/08 14:32:20;;;;;;;13.52;3.28;;;13.90;69.30;;;;;;5058800;28;20129;-39
2021/11/08 14:35:15;;;;;;;13.88;3.63;;;13.80;69.20;;;;;;5058747;28;20021;-39
2021/11/08 14:38:13;;;;;;;17.17;3.58;;;13.80;70.00;;;;;;5058638;28;20027;-39